ADDS METAR Data INFO
IDs: Format: Raw Decoded Include TAF

Data at: 0900 UTC 20 Oct 2017

KSKX 200856Z AUTO 03003KT 10SM BKN070 OVC095 09/02 A3011 RMK AO2 SLP136 T00940022 58009 $
KSKX 200756Z AUTO 00000KT 10SM OVC070 09/02 A3012 RMK AO2 SLP142 T00940022 $
KSKX 200556Z AUTO 00000KT 10SM CLR 09/01 A3014 RMK AO2 SLP155 T00940006 10178 20094 50000 $
KSKX 200456Z AUTO 19003KT 10SM FEW085 12/01 A3015 RMK AO2 SLP160 T01170006 $
KSKX 200356Z AUTO 21008KT 10SM BKN085 12/01 A3015 RMK AO2 SLP170 T01170006 $
KSKX 200256Z AUTO 02003KT 10SM BKN090 BKN100 12/M01 A3014 RMK AO2 SLP177 T01171006 53008 $
KSKX 200156Z AUTO 10005KT 10SM BKN095 11/M01 A3012 RMK AO2 SLP184 T01111011 $
KSKX 200056Z AUTO 23004KT 10SM CLR 15/M01 A3011 RMK AO2 SLP175 T01501006 $
KSKX 192356Z AUTO 23007KT 10SM CLR 18/M02 A3011 RMK AO2 SLP161 T01781017 10217 20167 55008 $
KSKX 192256Z AUTO 25011KT 10SM CLR 20/M03 A3011 RMK AO2 SLP158 T02001033 $
KSKX 192156Z AUTO 25007KT 10SM CLR 21/M03 A3012 RMK AO2 SLP162 T02061033 $
KSKX 192056Z AUTO 23006KT 10SM CLR 21/M05 A3014 RMK AO2 SLP165 T02061050 56030 $
KSKX 191956Z AUTO VRB04KT 10SM CLR 21/M06 A3017 RMK AO2 SLP173 T02061056 $
KSKX 191856Z AUTO 24006KT 10SM CLR 19/M06 A3021 RMK AO2 SLP193 T01941056 $
KSKX 191756Z AUTO 00000KT 10SM CLR 17/M06 A3025 RMK AO2 SLP208 T01671056 10167 21022 58012 $
KSKX 191656Z AUTO 03005KT 10SM CLR 14/M06 A3026 RMK AO2 SLP216 T01391056 $
KSKX 191556Z AUTO VRB04KT 10SM CLR 09/M06 A3028 RMK AO2 SLP230 T00941061 $
KSKX 191456Z AUTO 02006KT 10SM CLR 05/M07 A3029 RMK AO2 SLP234 T00501072 53006 $
KSKX 191356Z AUTO 33003KT 10SM CLR M01/M07 A3028 RMK AO2 SLP251 T10061067 FZRANO $
KSKX 191256Z AUTO 01003KT 10SM CLR M02/M07 A3027 RMK AO2 SLP235 T10171072 FZRANO $
KSKX 191156Z AUTO 05006KT 10SM CLR 01/M08 A3027 RMK AO2 SLP219 T00061078 10033 21006 53001 FZRANO $
KSKX 191056Z AUTO 35007KT 10SM CLR 00/M08 A3026 RMK AO2 SLP213 T00001083 FZRANO $
KSKX 190956Z AUTO 01006KT 10SM CLR 00/M09 A3025 RMK AO2 SLP211 T00001089 FZRANO $
KSKX 190856Z AUTO VRB05KT 10SM CLR 01/M09 A3027 RMK AO2 SLP210 T00111089 58005 FZRANO $
KSKX 190656Z AUTO 01008KT 10SM CLR 02/M09 A3028 RMK AO2 SLP219 T00171089 402061028 FZRANO $
KSKX 190556Z AUTO 01006KT 10SM CLR 03/M09 A3028 RMK AO2 SLP222 T00281089 10178 20028 58000 $
KSKX 190456Z AUTO 02005KT 10SM CLR 04/M09 A3029 RMK AO2 SLP222 T00441094 $
KSKX 190356Z AUTO 36006KT 10SM CLR 06/M09 A3029 RMK AO2 SLP235 T00561089 $
KSKX 190256Z AUTO 06003KT 10SM CLR 10/M07 A3029 RMK AO2 SLP232 T01001072 51007 $
KSKX 190156Z AUTO 10007KT 10SM CLR 07/M07 A3029 RMK AO2 SLP254 T00721067 $
KSKX 190056Z AUTO 05006KT 10SM CLR 13/M09 A3027 RMK AO2 SLP234 T01331094 $
KSKX 182356Z AUTO 04005KT 10SM CLR 18/M08 A3026 RMK AO2 SLP221 T01781083 10206 20172 58003 $
KSKX 182256Z AUTO 01004KT 10SM CLR 19/M09 A3027 RMK AO2 SLP220 T01941094 TSNO $
KSKX 182156Z AUTO 00000KT 10SM CLR 20/M11 A3027 RMK AO2 SLP218 T02001111 $